Time;durP1;ratioP1;P1;durP2;ratioP2;P2;SDS_P1;SDS_P2;PMS_P1;PMS_P2;Temp;Humidity;BMP_temperature;BMP_pressure;BME280_temperature;BME280_humidity;BME280_pressure;Samples;Min_cycle;Max_cycle;Signal;HPM_P1;HPM_P2
2021/06/15 00:00:38;;;;;;;1.57;1.47;;;;;;;14.11;100.00;100904.27;1744953;82;21924;-74
2021/06/15 00:03:05;;;;;;;1.50;1.40;;;;;;;14.10;100.00;100909.61;1744749;82;21557;-72
2021/06/15 00:05:33;;;;;;;1.40;1.30;;;;;;;14.09;100.00;100911.39;1744906;82;20986;-74
2021/06/15 00:07:59;;;;;;;1.50;1.40;;;;;;;14.09;100.00;100906.17;1744945;82;21530;-81
2021/06/15 00:10:26;;;;;;;1.57;1.30;;;;;;;14.10;100.00;100899.98;1744842;82;21031;-73
2021/06/15 00:12:54;;;;;;;2.75;1.50;;;;;;;14.11;100.00;100895.13;1744959;82;21976;-80
2021/06/15 00:15:22;;;;;;;2.50;1.15;;;;;;;14.12;100.00;100901.18;1744992;82;20999;-76
2021/06/15 00:17:49;;;;;;;1.37;1.27;;;;;;;14.15;100.00;100902.25;1745445;82;20865;-74
2021/06/15 00:20:17;;;;;;;1.50;1.40;;;;;;;14.18;100.00;100899.41;1745854;82;21058;-74
2021/06/15 00:22:45;;;;;;;1.40;1.30;;;;;;;14.21;100.00;100892.17;1745330;82;21023;-73
2021/06/15 00:25:13;;;;;;;3.15;1.40;;;;;;;14.23;100.00;100895.48;1744819;82;21802;-73
2021/06/15 00:27:42;;;;;;;1.62;1.52;;;;;;;14.27;100.00;100889.08;1745271;82;20958;-75
2021/06/15 00:30:12;;;;;;;1.52;1.42;;;;;;;14.31;100.00;100890.98;1745661;82;21004;-78
2021/06/15 00:32:39;;;;;;;2.95;1.62;;;;;;;14.34;100.00;100889.94;1745206;82;20984;-72
2021/06/15 00:35:07;;;;;;;1.65;1.55;;;;;;;14.36;100.00;100887.55;1745094;82;20924;-72
2021/06/15 00:37:33;;;;;;;2.98;2.00;;;;;;;14.40;100.00;100886.38;1743423;82;21144;-77
2021/06/15 00:40:01;;;;;;;1.82;1.70;;;;;;;14.42;100.00;100881.88;1742484;82;20884;-74
2021/06/15 00:42:27;;;;;;;3.50;2.08;;;;;;;14.41;100.00;100876.30;1742298;82;20960;-77
2021/06/15 00:44:54;;;;;;;1.92;1.77;;;;;;;14.42;100.00;100879.74;1742358;82;21016;-73
2021/06/15 00:47:22;;;;;;;2.12;1.92;;;;;;;14.43;100.00;100880.91;1742529;82;21530;-83
2021/06/15 00:49:52;;;;;;;1.82;1.70;;;;;;;14.45;100.00;100878.19;1735774;81;21058;-72
2021/06/15 00:52:19;;;;;;;3.00;1.80;;;;;;;14.44;100.00;100874.75;1735615;82;21537;-75
2021/06/15 00:54:49;;;;;;;2.25;2.05;;;;;;;14.43;100.00;100876.99;1742699;82;20889;-76
2021/06/15 00:57:18;;;;;;;2.10;1.90;;;;;;;14.40;100.00;100868.09;1742303;82;21558;-75
2021/06/15 00:59:45;;;;;;;2.20;2.00;;;;;;;14.39;100.00;100870.84;1742331;82;20987;-71
2021/06/15 01:02:12;;;;;;;2.55;2.05;;;;;;;14.39;100.00;100875.56;1742335;82;21156;-76
2021/06/15 01:04:39;;;;;;;4.72;2.05;;;;;;;14.40;100.00;100875.93;1742346;82;20852;-71
2021/06/15 01:07:15;;;;;;;3.37;1.92;;;;;;;14.39;100.00;100873.45;1742380;82;20983;-75
2021/06/15 01:09:53;;;;;;;2.47;1.85;;;;;;;14.39;100.00;100869.04;1735838;82;20984;-68
2021/06/15 01:13:03;;;;;;;2.15;1.95;;;;;;;14.40;100.00;100869.41;1742566;82;20999;-70
2021/06/15 01:16:09;;;;;;;2.27;2.08;;;;;;;14.41;100.00;100870.23;1742368;81;21112;-77
2021/06/15 01:18:59;;;;;;;4.78;2.02;;;;;;;14.43;100.00;100867.86;1742350;81;20920;-70
2021/06/15 01:21:28;;;;;;;2.40;1.92;;;;;;;14.44;100.00;100863.47;1742411;82;21002;-73
2021/06/15 01:24:09;;;;;;;3.98;2.08;;;;;;;14.42;100.00;100865.38;1742481;82;21331;-76
2021/06/15 01:27:05;;;;;;;3.22;2.02;;;;;;;14.42;100.00;100861.47;1742701;82;20967;-76
2021/06/15 01:29:38;;;;;;;1.85;1.75;;;;;;;14.43;100.00;100867.86;1741746;82;21126;-77
2021/06/15 01:32:11;;;;;;;2.30;2.10;;;;;;;14.46;100.00;100861.55;1708642;82;20933;-73
2021/06/15 01:34:42;;;;;;;2.67;2.05;;;;;;;14.46;100.00;100857.17;1742307;82;20983;-75
2021/06/15 01:37:16;;;;;;;2.52;2.00;;;;;;;14.46;100.00;100851.95;1735573;81;20971;-72
2021/06/15 01:39:59;;;;;;;2.50;2.15;;;;;;;14.45;100.00;100859.45;1742574;81;20995;-71
2021/06/15 01:42:34;;;;;;;3.62;1.98;;;;;;;14.45;100.00;100852.08;1739239;82;21120;-73
2021/06/15 01:45:13;;;;;;;2.72;2.20;;;;;;;14.44;100.00;100848.64;1742313;82;21419;-74
2021/06/15 01:47:45;;;;;;;3.67;1.82;;;;;;;14.43;100.00;100848.27;1735672;81;20983;-75
2021/06/15 01:50:13;;;;;;;5.42;2.12;;;;;;;14.42;100.00;100843.19;1742555;82;21518;-72
2021/06/15 01:52:40;;;;;;;3.75;2.40;;;;;;;14.43;100.00;100846.13;1742661;82;20960;-78
2021/06/15 01:55:09;;;;;;;3.17;2.05;;;;;;;14.45;100.00;100845.55;1743416;82;21110;-72
2021/06/15 01:57:46;;;;;;;2.45;2.05;;;;;;;14.48;100.00;100840.09;1742584;82;20924;-74
2021/06/15 02:00:15;;;;;;;2.40;2.20;;;;;;;14.45;100.00;100841.17;1743074;82;20908;-74
2021/06/15 02:02:50;;;;;;;2.85;2.50;;;;;;;14.43;100.00;100842.22;1742720;81;20901;-73
2021/06/15 02:05:23;;;;;;;3.25;2.12;;;;;;;14.40;100.00;100838.55;1741974;82;21581;-73
2021/06/15 02:07:52;;;;;;;2.75;2.15;;;;;;;14.37;100.00;100842.23;1742009;82;21103;-79
2021/06/15 02:10:19;;;;;;;2.42;2.22;;;;;;;14.34;100.00;100837.25;1742315;82;20940;-75
2021/06/15 02:12:53;;;;;;;2.50;2.20;;;;;;;14.33;100.00;100834.75;1712360;82;20965;-78
2021/06/15 02:15:37;;;;;;;5.22;2.52;;;;;;;14.28;100.00;100833.33;1742263;81;20980;-73
2021/06/15 02:18:08;;;;;;;3.10;2.50;;;;;;;14.24;100.00;100824.06;1741353;82;20967;-77
2021/06/15 02:20:40;;;;;;;3.08;2.50;;;;;;;14.24;100.00;100825.84;1741175;82;21906;-75
2021/06/15 02:23:07;;;;;;;2.70;2.47;;;;;;;14.25;100.00;100833.56;1742233;82;20977;-77
2021/06/15 02:25:36;;;;;;;3.15;2.85;;;;;;;14.27;100.00;100834.27;1742334;82;20955;-74
2021/06/15 02:28:04;;;;;;;3.22;2.80;;;;;;;14.31;100.00;100828.33;1742453;82;21011;-82
2021/06/15 02:30:32;;;;;;;2.90;2.60;;;;;;;14.34;100.00;100824.20;1742441;82;21027;-77
2021/06/15 02:33:13;;;;;;;3.30;3.00;;;;;;;14.37;100.00;100833.09;1742320;82;21158;-72
2021/06/15 02:35:49;;;;;;;3.58;2.90;;;;;;;14.44;100.00;100829.52;1742275;81;20916;-84
2021/06/15 02:38:30;;;;;;;2.77;2.50;;;;;;;14.49;100.00;100820.36;1756217;81;21069;-72
2021/06/15 02:41:05;;;;;;;3.80;3.15;;;;;;;14.53;100.00;100830.92;1763676;81;20908;-76
2021/06/15 02:43:33;;;;;;;2.75;2.55;;;;;;;14.57;100.00;100827.13;1763817;81;21078;-71
2021/06/15 02:46:00;;;;;;;3.33;2.80;;;;;;;14.62;100.00;100824.13;1763745;81;21486;-74
2021/06/15 02:48:37;;;;;;;5.17;2.80;;;;;;;14.67;100.00;100824.61;1763827;81;20935;-75
2021/06/15 02:51:06;;;;;;;4.55;2.87;;;;;;;14.74;100.00;100821.36;1763505;81;21682;-77
2021/06/15 02:54:06;;;;;;;3.85;2.62;;;;;;;14.82;100.00;100824.67;1763712;81;21014;-74
2021/06/15 02:56:38;;;;;;;3.15;2.67;;;;;;;14.88;100.00;100827.25;1763854;81;20967;-71
2021/06/15 02:59:06;;;;;;;5.10;3.00;;;;;;;14.95;100.00;100834.48;1764057;81;21943;-75
2021/06/15 03:01:33;;;;;;;4.17;2.98;;;;;;;15.01;100.00;100830.06;1756995;81;21066;-74
2021/06/15 03:04:03;;;;;;;3.27;2.77;;;;;;;15.07;100.00;100828.25;1763696;81;20899;-75
2021/06/15 03:06:31;;;;;;;3.85;3.17;;;;;;;15.13;100.00;100829.52;1763605;81;20927;-75
2021/06/15 03:08:58;;;;;;;3.50;3.02;;;;;;;15.15;100.00;100821.93;1763551;81;21015;-74
2021/06/15 03:11:26;;;;;;;6.12;3.55;;;;;;;15.22;100.00;100824.87;1763662;81;21136;-68
2021/06/15 03:14:15;;;;;;;4.50;3.50;;;;;;;15.27;100.00;100814.84;1763563;81;20903;-73
2021/06/15 03:16:43;;;;;;;4.97;3.37;;;;;;;15.29;100.00;100805.91;1763719;81;21612;-74
2021/06/15 03:19:34;;;;;;;4.95;2.95;;;;;;;15.30;100.00;100806.75;1763640;81;20904;-69
2021/06/15 03:22:17;;;;;;;4.78;3.30;;;;;;;15.31;100.00;100809.25;1763380;81;21456;-77
2021/06/15 03:24:54;;;;;;;3.65;3.33;;;;;;;15.32;100.00;100816.59;1763870;81;21796;-75
2021/06/15 03:27:42;;;;;;;3.65;2.87;;;;;;;15.35;100.00;100808.48;1763338;81;20990;-74
2021/06/15 03:30:11;;;;;;;3.65;3.27;;;;;;;15.37;100.00;100810.52;1763539;81;20942;-71
2021/06/15 03:32:51;;;;;;;3.85;3.30;;;;;;;15.40;100.00;100802.88;1732469;81;21518;-76
2021/06/15 03:35:19;;;;;;;4.85;3.85;;;;;;;15.46;100.00;100801.89;1764135;81;20943;-77
2021/06/15 03:37:52;;;;;;;4.28;3.47;;;;;;;15.49;100.00;100798.22;1758145;81;21540;-72
2021/06/15 03:40:22;;;;;;;5.10;3.85;;;;;;;15.54;100.00;100803.91;1745558;82;20971;-76
2021/06/15 03:42:52;;;;;;;4.08;3.10;;;;;;;15.59;100.00;100800.41;1745751;82;21500;-73
2021/06/15 03:45:19;;;;;;;5.20;3.70;;;;;;;15.65;100.00;100811.66;1745948;82;20983;-75
2021/06/15 03:47:48;;;;;;;4.42;3.30;;;;;;;15.69;100.00;100811.28;1745361;82;21039;-77
2021/06/15 03:50:15;;;;;;;4.60;3.62;;;;;;;15.71;100.00;100798.89;1746621;82;21028;-77
2021/06/15 03:52:43;;;;;;;4.22;3.33;;;;;;;15.73;100.00;100805.31;1745356;82;20975;-71
2021/06/15 03:55:13;;;;;;;3.77;3.40;;;;;;;15.76;100.00;100808.98;1745281;82;20900;-76
2021/06/15 03:57:43;;;;;;;5.95;3.80;;;;;;;15.78;100.00;100806.58;1745649;82;21030;-76
2021/06/15 04:00:13;;;;;;;3.83;3.45;;;;;;;15.79;100.00;100804.28;1745344;82;20979;-77
2021/06/15 04:02:43;;;;;;;;;;;;;;;15.83;100.00;100807.00;1726208;81;21112;-73
2021/06/15 04:05:10;;;;;;;4.60;3.70;;;;;;;15.85;100.00;100811.64;1745626;82;20500;-77
2021/06/15 04:07:38;;;;;;;4.42;2.95;;;;;;;15.88;100.00;100815.78;1745570;82;20944;-77
2021/06/15 04:10:08;;;;;;;5.70;3.55;;;;;;;15.93;100.00;100816.67;1722564;81;20967;-74
2021/06/15 04:12:36;;;;;;;5.47;3.50;;;;;;;15.97;100.00;100818.91;1745565;82;21546;-74
2021/06/15 04:15:10;;;;;;;5.92;3.65;;;;;;;16.02;100.00;100816.70;1745520;82;21133;-75
2021/06/15 04:17:39;;;;;;;4.80;3.42;;;;;;;16.07;100.00;100815.85;1747280;82;20970;-76
2021/06/15 04:20:07;;;;;;;7.58;3.80;;;;;;;16.11;100.00;100817.25;1745347;82;21055;-78
2021/06/15 04:22:36;;;;;;;4.97;3.85;;;;;;;16.16;100.00;100811.13;1745790;82;21038;-76
2021/06/15 04:25:05;;;;;;;5.37;3.55;;;;;;;16.23;100.00;100822.73;1745666;82;20943;-75
2021/06/15 04:27:34;;;;;;;5.25;3.55;;;;;;;16.27;100.00;100824.09;1745450;82;21899;-79
2021/06/15 04:30:02;;;;;;;4.20;3.80;;;;;;;16.30;100.00;100820.41;1745373;82;21314;-77
2021/06/15 04:32:34;;;;;;;7.47;4.50;;;;;;;16.34;100.00;100824.39;1745625;82;20968;-80
2021/06/15 04:35:04;;;;;;;5.00;3.75;;;;;;;16.33;100.00;100823.59;1745513;82;20940;-79
2021/06/15 04:37:32;;;;;;;7.37;4.45;;;;;;;16.34;100.00;100815.22;1745297;82;21395;-73
2021/06/15 04:40:20;;;;;;;5.53;4.40;;;;;;;16.32;100.00;100819.30;1745056;82;21132;-75
2021/06/15 04:42:59;;;;;;;6.10;3.80;;;;;;;16.33;100.00;100824.06;1745110;82;20972;-76
2021/06/15 04:45:32;;;;;;;9.03;4.22;;;;;;;16.33;100.00;100825.38;1744079;81;20928;-74
2021/06/15 04:48:08;;;;;;;4.12;3.72;;;;;;;16.33;100.00;100828.83;1722212;82;21475;-75
2021/06/15 04:50:36;;;;;;;5.97;4.05;;;;;;;16.35;100.00;100817.72;1745192;82;21491;-76
2021/06/15 04:53:06;;;;;;;4.67;3.87;;;;;;;16.37;100.00;100823.64;1745187;82;21154;-74
2021/06/15 04:55:38;;;;;;;7.03;4.75;;;;;;;16.42;100.00;100816.70;1745014;82;21732;-77
2021/06/15 04:58:08;;;;;;;;;;;;;;;16.46;100.00;100810.72;1747790;82;20936;-74
2021/06/15 05:00:37;;;;;;;9.08;5.30;;;;;;;16.49;100.00;100808.66;1744993;82;20150;-74
2021/06/15 05:03:04;;;;;;;5.05;4.15;;;;;;;16.52;100.00;100812.80;1745165;82;21026;-75
2021/06/15 05:05:32;;;;;;;5.50;3.90;;;;;;;16.53;100.00;100817.08;1745020;82;21140;-75
2021/06/15 05:08:02;;;;;;;5.65;4.28;;;;;;;16.51;100.00;100809.82;1745016;82;20955;-80
2021/06/15 05:10:30;;;;;;;6.78;4.25;;;;;;;16.52;100.00;100812.80;1745119;82;21498;-76
2021/06/15 05:12:57;;;;;;;4.78;3.70;;;;;;;16.49;100.00;100802.59;1744835;82;20979;-74
2021/06/15 05:15:27;;;;;;;5.40;4.15;;;;;;;16.49;100.00;100796.04;1745147;82;21027;-77
2021/06/15 05:17:56;;;;;;;5.58;3.95;;;;;;;16.52;100.00;100803.16;1747004;82;21142;-74
2021/06/15 05:20:24;;;;;;;6.28;4.00;;;;;;;16.55;100.00;100803.38;1747367;82;21535;-78
2021/06/15 05:23:09;;;;;;;5.97;3.90;;;;;;;16.63;100.00;100812.69;1747235;82;20964;-75
2021/06/15 05:25:36;;;;;;;7.90;5.10;;;;;;;16.69;100.00;100802.49;1724104;82;21471;-76
2021/06/15 05:28:03;;;;;;;9.53;6.47;;;;;;;16.78;100.00;100802.97;1745154;82;21557;-76
2021/06/15 05:30:30;;;;;;;13.40;6.33;;;;;;;16.87;100.00;100802.66;1744939;82;21502;-71
2021/06/15 05:32:58;;;;;;;10.82;5.70;;;;;;;16.98;100.00;100799.05;1744796;82;21610;-75
2021/06/15 05:35:25;;;;;;;12.43;6.50;;;;;;;17.06;100.00;100797.41;1744873;82;21030;-76
2021/06/15 05:37:52;;;;;;;8.00;5.62;;;;;;;17.12;100.00;100795.53;1744826;80;20905;-77
2021/06/15 05:40:19;;;;;;;9.78;4.80;;;;;;;17.18;100.00;100802.00;1744910;82;21000;-74
2021/06/15 05:42:47;;;;;;;5.65;4.65;;;;;;;17.22;100.00;100800.77;1721886;82;21031;-70
2021/06/15 05:45:15;;;;;;;4.45;4.05;;;;;;;17.23;100.00;100815.03;1744617;82;20979;-74
2021/06/15 05:47:51;;;;;;;4.95;4.50;;;;;;;17.26;100.00;100820.51;1744904;82;20972;-80
2021/06/15 05:50:20;;;;;;;8.23;4.72;;;;;;;17.28;100.00;100831.20;1744968;82;20932;-75
2021/06/15 05:52:48;;;;;;;9.23;5.40;;;;;;;17.28;100.00;100834.30;1745042;82;20987;-81
2021/06/15 05:55:18;;;;;;;8.00;5.58;;;;;;;17.28;100.00;100840.86;1746550;82;21107;-74
2021/06/15 05:57:46;;;;;;;9.03;6.45;;;;;;;17.27;100.00;100845.75;1744806;82;20935;-80
2021/06/15 06:00:14;;;;;;;6.30;5.12;;;;;;;17.25;100.00;100846.38;1744662;82;21197;-77
2021/06/15 06:02:40;;;;;;;8.93;5.28;;;;;;;17.22;100.00;100835.69;1721173;82;20973;-78
2021/06/15 06:10:30;;;;;;;12.35;5.62;;;;;;;17.27;100.00;100839.19;1744721;82;21538;-76
2021/06/15 06:12:57;;;;;;;11.48;5.00;;;;;;;17.33;100.00;100828.13;1720285;82;21231;-80
2021/06/15 06:15:26;;;;;;;14.50;6.35;;;;;;;17.39;100.00;100832.34;1743450;82;21573;-77
2021/06/15 06:17:54;;;;;;;11.03;5.50;;;;;;;17.48;100.00;100845.59;1731958;82;21125;-75
2021/06/15 06:20:23;;;;;;;8.60;5.45;;;;;;;17.57;100.00;100844.30;1714045;83;21127;-76
2021/06/15 06:22:50;;;;;;;9.30;5.58;;;;;;;17.66;100.00;100848.69;1714106;83;21180;-77
2021/06/15 06:25:17;;;;;;;12.20;10.78;;;;;;;17.73;100.00;100844.53;1713371;83;20978;-74
2021/06/15 06:27:44;;;;;;;6.28;5.28;;;;;;;17.81;100.00;100839.87;1713557;83;21118;-76
2021/06/15 06:30:13;;;;;;;7.20;4.85;;;;;;;17.89;100.00;100836.89;1713970;83;21133;-80
2021/06/15 06:32:59;;;;;;;11.50;5.55;;;;;;;17.96;100.00;100831.38;1714158;83;21126;-80
2021/06/15 06:35:30;;;;;;;8.95;5.60;;;;;;;18.04;100.00;100830.66;1713747;83;21880;-78
2021/06/15 06:37:57;;;;;;;15.63;5.85;;;;;;;18.16;100.00;100833.92;1713624;83;21082;-82
2021/06/15 06:40:25;;;;;;;29.85;5.90;;;;;;;18.28;100.00;100835.41;1713020;83;21078;-75
2021/06/15 06:42:53;;;;;;;13.13;4.92;;;;;;;18.36;100.00;100838.94;1711913;82;21672;-77
2021/06/15 06:45:22;;;;;;;10.03;5.55;;;;;;;18.46;100.00;100836.26;1713738;83;21903;-73
2021/06/15 06:47:49;;;;;;;8.03;5.45;;;;;;;18.54;100.00;100838.19;1703293;83;21091;-72
2021/06/15 06:50:16;;;;;;;14.65;5.60;;;;;;;18.54;100.00;100832.42;1708496;83;21027;-78
2021/06/15 06:52:47;;;;;;;7.10;4.30;;;;;;;18.59;100.00;100838.56;1708254;83;21222;-76
2021/06/15 06:55:19;;;;;;;19.30;6.05;;;;;;;18.64;100.00;100835.81;1701805;83;21083;-82
2021/06/15 06:57:46;;;;;;;6.33;3.83;;;;;;;18.72;100.00;100834.61;1701382;83;21132;-77
2021/06/15 07:00:15;;;;;;;8.55;4.12;;;;;;;18.84;100.00;100834.72;1701289;83;20986;-70
2021/06/15 07:02:42;;;;;;;8.70;4.40;;;;;;;18.92;100.00;100832.14;1708990;83;21143;-77
2021/06/15 07:05:11;;;;;;;8.65;4.83;;;;;;;18.97;100.00;100828.59;1701855;83;21184;-74
2021/06/15 07:07:38;;;;;;;9.03;6.03;;;;;;;19.01;100.00;100823.86;1701498;84;20996;-75
2021/06/15 07:10:05;;;;;;;7.45;4.60;;;;;;;19.01;100.00;100823.86;1708844;83;21165;-77
2021/06/15 07:12:33;;;;;;;11.18;4.85;;;;;;;19.06;100.00;100827.34;1710732;82;21076;-76
2021/06/15 07:15:06;;;;;;;11.93;5.20;;;;;;;19.13;100.00;100826.59;1706227;82;21680;-78
2021/06/15 07:17:33;;;;;;;10.58;5.47;;;;;;;19.16;100.00;100821.02;1730396;82;21579;-76
2021/06/15 07:20:00;;;;;;;6.90;4.17;;;;;;;19.14;100.00;100822.98;1730221;82;21056;-77
2021/06/15 07:22:27;;;;;;;9.15;4.22;;;;;;;19.16;100.00;100821.02;1730643;82;21152;-74
2021/06/15 07:24:54;;;;;;;5.50;4.05;;;;;;;19.19;100.00;100825.14;1730355;81;21602;-82
2021/06/15 07:27:21;;;;;;;8.50;3.80;;;;;;;19.28;100.00;100823.73;1730417;82;21120;-74
2021/06/15 07:29:49;;;;;;;10.88;5.10;;;;;;;19.42;100.00;100817.14;1704808;82;20944;-71
2021/06/15 07:32:17;;;;;;;6.72;5.22;;;;;;;19.56;100.00;100810.48;1708339;83;21592;-77
2021/06/15 07:34:44;;;;;;;5.15;4.00;;;;;;;19.65;100.00;100809.55;1702169;82;21151;-76
2021/06/15 07:37:12;;;;;;;5.47;4.42;;;;;;;19.73;100.00;100805.14;1721072;81;21043;-73
2021/06/15 07:39:42;;;;;;;5.80;4.60;;;;;;;19.89;100.00;100801.77;1771957;79;20959;-71
2021/06/15 07:42:13;;;;;;;6.58;5.00;;;;;;;19.96;99.57;100800.98;1779433;80;21105;-82
2021/06/15 07:44:40;;;;;;;9.03;5.25;;;;;;;19.99;98.97;100806.42;1779070;80;21577;-75
2021/06/15 07:47:07;;;;;;;8.18;5.03;;;;;;;19.92;98.86;100802.77;1769134;79;21920;-74
2021/06/15 07:49:34;;;;;;;12.58;5.12;;;;;;;19.87;98.99;100809.01;1677866;84;21228;-72
2021/06/15 07:52:03;;;;;;;8.05;5.08;;;;;;;19.81;99.35;100806.52;1698634;84;21641;-76
2021/06/15 07:54:32;;;;;;;8.30;4.90;;;;;;;19.78;99.61;100809.95;1678334;84;20992;-79
2021/06/15 07:57:00;;;;;;;9.85;5.97;;;;;;;19.77;100.00;100806.98;1698686;84;21658;-83
2021/06/15 07:59:30;;;;;;;14.10;6.55;;;;;;;19.82;100.00;100804.69;1678078;85;21049;-78
2021/06/15 08:01:57;;;;;;;20.02;6.65;;;;;;;19.85;100.00;100803.88;1698823;84;21570;-76
2021/06/15 08:04:24;;;;;;;12.53;5.83;;;;;;;19.91;100.00;100806.41;1678036;84;21107;-82
2021/06/15 08:06:52;;;;;;;11.93;6.78;;;;;;;19.99;100.00;100810.37;1698776;84;21047;-81
2021/06/15 08:09:19;;;;;;;9.20;5.58;;;;;;;20.02;100.00;100809.58;1678045;85;21126;-77
2021/06/15 08:11:46;;;;;;;16.77;6.58;;;;;;;20.05;100.00;100801.34;1698559;84;21744;-72
2021/06/15 08:14:14;;;;;;;8.00;5.62;;;;;;;20.16;100.00;100804.20;1678221;85;21111;-77
2021/06/15 08:16:41;;;;;;;10.08;5.37;;;;;;;20.26;99.80;100798.31;1698843;84;21039;-74
2021/06/15 08:19:12;;;;;;;8.35;5.05;;;;;;;20.32;99.42;100796.37;1678346;85;21083;-77
2021/06/15 08:21:39;;;;;;;9.73;5.50;;;;;;;20.47;99.62;100789.98;1705888;83;21602;-78
2021/06/15 08:24:12;;;;;;;11.97;5.65;;;;;;;20.72;99.44;100786.88;1698689;84;21901;-77
2021/06/15 08:26:38;;;;;;;8.38;5.78;;;;;;;20.96;98.21;100776.35;1698502;84;21694;-78
2021/06/15 08:29:05;;;;;;;10.63;5.60;;;;;;;21.13;97.51;100777.18;1678231;85;21055;-74
2021/06/15 08:31:35;;;;;;;15.35;8.93;;;;;;;21.22;96.76;100776.20;1697915;84;21039;-76
2021/06/15 08:34:03;;;;;;;9.28;5.90;;;;;;;21.24;96.16;100768.44;1675519;85;21522;-81
2021/06/15 08:36:32;;;;;;;8.40;5.85;;;;;;;21.29;96.14;100764.79;1684922;85;22423;-80
2021/06/15 08:39:04;;;;;;;13.43;7.92;;;;;;;21.30;95.28;100766.45;1685135;85;21071;-73
2021/06/15 08:41:32;;;;;;;14.40;7.80;;;;;;;21.34;95.35;100764.30;1684626;85;20995;-79
2021/06/15 08:44:01;;;;;;;11.10;7.85;;;;;;;21.49;95.35;100760.80;1699224;83;21054;-77
2021/06/15 08:46:28;;;;;;;7.85;6.05;;;;;;;21.72;94.93;100751.66;1713637;82;22334;-74
2021/06/15 08:48:58;;;;;;;13.68;6.20;;;;;;;21.93;93.81;100752.41;1714482;83;21881;-76
2021/06/15 08:51:25;;;;;;;11.93;5.90;;;;;;;21.98;92.55;100751.41;1714788;83;21061;-72
2021/06/15 08:53:53;;;;;;;12.85;5.30;;;;;;;21.91;90.67;100746.48;1714650;83;21059;-78
2021/06/15 08:56:25;;;;;;;10.13;5.42;;;;;;;21.81;90.75;100744.51;1713882;83;21127;-75
2021/06/15 08:59:13;;;;;;;;;;;;;;;21.87;91.29;100746.46;1715956;83;21568;-72
2021/06/15 09:01:41;;;;;;;12.47;5.50;;;;;;;21.99;91.09;100735.36;1713354;83;21126;-76
2021/06/15 09:04:08;;;;;;;6.58;4.47;;;;;;;22.11;90.09;100738.46;1713677;83;21069;-70
2021/06/15 09:06:35;;;;;;;8.55;4.15;;;;;;;22.16;88.60;100730.82;1713813;83;21108;-84
2021/06/15 09:09:03;;;;;;;9.15;5.10;;;;;;;22.22;88.02;100735.91;1713521;83;21066;-77
2021/06/15 09:11:53;;;;;;;17.65;6.80;;;;;;;22.24;87.13;100724.67;1714211;83;21007;-72
2021/06/15 09:14:50;;;;;;;10.13;4.90;;;;;;;22.25;86.72;100727.63;1713428;83;21597;-74
2021/06/15 09:17:33;;;;;;;5.50;4.15;;;;;;;22.28;86.08;100722.81;1713709;83;21034;-77
2021/06/15 09:20:26;;;;;;;9.40;4.80;;;;;;;22.27;84.83;100724.32;1713817;83;21533;-76
2021/06/15 09:22:59;;;;;;;11.85;5.20;;;;;;;22.28;85.27;100724.63;1713493;83;21010;-74
2021/06/15 09:25:28;;;;;;;19.27;5.22;;;;;;;22.30;84.47;100725.30;1713763;83;21101;-73
2021/06/15 09:27:55;;;;;;;10.45;4.83;;;;;;;22.32;83.99;100733.86;1714015;83;21863;-80
2021/06/15 09:30:28;;;;;;;7.65;4.35;;;;;;;22.35;84.08;100730.86;1713834;83;20947;-77
2021/06/15 09:32:55;;;;;;;9.48;5.15;;;;;;;22.33;83.67;100729.73;1713647;83;21126;-77
2021/06/15 09:35:32;;;;;;;15.50;4.72;;;;;;;22.40;85.12;100739.11;1713798;83;21122;-73
2021/06/15 09:38:00;;;;;;;7.87;4.62;;;;;;;22.46;85.38;100737.88;1712757;83;20986;-79
2021/06/15 09:40:32;;;;;;;7.90;4.58;;;;;;;22.51;86.21;100743.98;1713556;83;21142;-75
2021/06/15 09:43:10;;;;;;;10.05;5.03;;;;;;;22.51;86.27;100749.27;1692449;83;21050;-73
2021/06/15 09:45:44;;;;;;;9.60;4.60;;;;;;;22.50;86.03;100745.80;1714057;83;33413;-75
2021/06/15 09:48:29;;;;;;;15.08;5.47;;;;;;;22.48;86.23;100745.66;1711957;83;21138;-75
2021/06/15 09:51:04;;;;;;;27.15;7.00;;;;;;;22.47;86.83;100753.25;1711044;83;21576;-76
2021/06/15 09:53:38;;;;;;;39.23;8.28;;;;;;;22.45;87.45;100756.09;1710889;83;20951;-74
2021/06/15 09:56:08;;;;;;;23.77;5.83;;;;;;;22.53;88.46;100754.70;1711103;83;21226;-75
2021/06/15 09:58:52;;;;;;;19.20;6.55;;;;;;;22.61;87.83;100753.83;1711858;83;21082;-72
2021/06/15 10:01:42;;;;;;;12.70;5.87;;;;;;;22.69;86.74;100763.05;1712571;83;21104;-75
2021/06/15 10:04:23;;;;;;;37.17;6.70;;;;;;;22.73;85.99;100753.77;1713530;83;21059;-74
2021/06/15 10:06:53;;;;;;;19.43;7.23;;;;;;;22.77;85.21;100750.27;1711651;83;21298;-80
2021/06/15 10:09:32;;;;;;;17.42;5.60;;;;;;;22.80;85.10;100745.44;1719099;82;21346;-72
2021/06/15 10:12:07;;;;;;;14.53;5.75;;;;;;;22.75;84.90;100745.13;1710853;83;21787;-76
2021/06/15 10:14:40;;;;;;;12.73;5.10;;;;;;;22.65;85.57;100742.73;1736084;82;21537;-72
2021/06/15 10:17:07;;;;;;;9.53;4.93;;;;;;;22.51;85.39;100747.45;1741212;82;21495;-75
2021/06/15 10:19:35;;;;;;;16.40;8.03;;;;;;;22.34;86.50;100751.69;1740692;82;21695;-78
2021/06/15 10:22:02;;;;;;;13.83;8.45;;;;;;;22.13;88.07;100743.06;1740265;82;20994;-72
2021/06/15 10:24:30;;;;;;;11.18;7.97;;;;;;;21.88;90.96;100743.66;1740698;82;21080;-73
2021/06/15 10:26:58;;;;;;;12.82;8.58;;;;;;;21.59;92.76;100736.34;1740785;82;20995;-72
2021/06/15 10:29:27;;;;;;;10.82;7.10;;;;;;;21.36;94.85;100734.09;1740454;81;21070;-74
2021/06/15 10:31:55;;;;;;;12.85;7.85;;;;;;;21.23;97.14;100727.69;1740803;82;21130;-73
2021/06/15 10:35:04;;;;;;;10.13;7.83;;;;;;;21.14;98.92;100720.78;1740438;82;21071;-74
2021/06/15 10:37:36;;;;;;;11.57;7.70;;;;;;;21.04;100.00;100727.03;1740297;81;21059;-75
2021/06/15 10:40:26;;;;;;;8.95;6.85;;;;;;;21.00;100.00;100726.20;1738446;82;21628;-76
2021/06/15 10:43:22;;;;;;;14.40;6.72;;;;;;;20.97;100.00;100727.36;1734075;82;21086;-74
2021/06/15 10:46:19;;;;;;;43.73;7.78;;;;;;;20.95;100.00;100725.40;1721667;82;21127;-76
2021/06/15 10:48:49;;;;;;;39.27;8.78;;;;;;;20.92;100.00;100708.58;1755701;79;21099;-77
2021/06/15 10:51:38;;;;;;;40.73;8.15;;;;;;;20.90;100.00;100707.11;1730318;81;21631;-75
2021/06/15 10:54:30;;;;;;;30.48;7.55;;;;;;;20.87;100.00;100708.73;1756442;81;21002;-72
2021/06/15 10:57:20;;;;;;;31.30;8.00;;;;;;;20.83;100.00;100698.20;1762090;81;21082;-73
2021/06/15 11:00:02;;;;;;;11.88;5.37;;;;;;;20.82;100.00;100682.05;1762863;81;21820;-78
2021/06/15 11:02:32;;;;;;;10.20;7.95;;;;;;;20.86;100.00;100669.69;1762685;81;21014;-73
2021/06/15 11:05:20;;;;;;;10.35;5.70;;;;;;;20.83;100.00;100665.23;1762122;81;21619;-73
2021/06/15 11:07:47;;;;;;;7.55;5.20;;;;;;;20.84;100.00;100664.22;1761754;81;21047;-74
2021/06/15 11:10:15;;;;;;;5.87;5.05;;;;;;;20.90;100.00;100651.19;1762855;81;21198;-75
2021/06/15 11:12:47;;;;;;;7.03;4.90;;;;;;;20.97;100.00;100650.02;1730653;81;20955;-75
2021/06/15 11:15:22;;;;;;;7.85;5.08;;;;;;;21.05;100.00;100650.85;1763204;81;21439;-73
2021/06/15 11:17:55;;;;;;;6.78;4.15;;;;;;;21.13;100.00;100646.06;1759503;81;20947;-74
2021/06/15 11:20:34;;;;;;;5.05;4.33;;;;;;;21.13;100.00;100646.06;1752939;81;20983;-75
2021/06/15 11:23:22;;;;;;;5.60;4.75;;;;;;;21.11;100.00;100650.70;1762204;81;21001;-74
2021/06/15 11:25:56;;;;;;;8.30;4.90;;;;;;;21.09;100.00;100629.73;1761738;81;21787;-73
2021/06/15 11:28:45;;;;;;;8.70;4.28;;;;;;;21.13;100.00;100618.34;1762938;81;20966;-74
2021/06/15 11:31:23;;;;;;;5.80;4.10;;;;;;;21.23;100.00;100622.11;1762405;81;20983;-71
2021/06/15 11:34:07;;;;;;;6.50;3.87;;;;;;;21.27;100.00;100620.78;1762027;81;20982;-72
2021/06/15 11:36:42;;;;;;;5.47;3.25;;;;;;;21.20;100.00;100624.59;1761459;81;21050;-75
2021/06/15 11:39:27;;;;;;;6.20;3.08;;;;;;;21.18;100.00;100623.13;1762350;81;21109;-75
2021/06/15 11:42:23;;;;;;;3.95;2.80;;;;;;;21.15;98.24;100628.75;1762394;81;20899;-74
2021/06/15 11:44:57;;;;;;;4.75;2.70;;;;;;;21.12;96.78;100622.00;1761641;81;20997;-75